Dan Fighter — OVUE2 — position and weather

sailwx.info

Track history (hours):
 
Tides and Currents Weather Stations Pressure Air Temp Water Temp Dewpoint Dewpoint Depression Visibility Wind Speed Wind Dir Waves Ship Positions

Dan Fighter

Last reported at 2015-Jan-30 13:33 UTC. Time now 2015-Jan-30 21:41 UTC.
Position N 50°34' E 000°38'.

Length 64 m; draft 3.1 m.

Type: Cargo ship. MMSI: 220386978.

Date/timePositionNaut miles runAvg speedWind from/ knotsBaromVisibWave heightAir tempDewpointWater temp
2015-Jan-30 13:33N 50°34' E 000°38'8 8.0
2015-Jan-30 12:33N 50°40' E 000°47'8 7.8
2015-Jan-30 11:33N 50°44' E 000°57'14 6.9
2015-Jan-30 09:30N 50°52' E 001°15'5 5.6
2015-Jan-30 08:33N 50°56' E 001°20'5 4.6
2015-Jan-30 07:33N 50°60' E 001°25'5 4.8
2015-Jan-30 06:34N 51°03' E 001°31'6 6.4
2015-Jan-30 05:33N 51°08' E 001°38'9 8.6
2015-Jan-30 04:33N 51°14' E 001°47'9 9.1
2015-Jan-30 03:33N 51°22' E 001°55'8 7.6
2015-Jan-30 02:33N 51°28' E 002°01'6 6.0
2015-Jan-30 01:33N 51°32' E 002°08'5 5.0
2015-Jan-30 00:33N 51°36' E 002°13'4 4.3
2015-Jan-29 23:32N 51°39' E 002°18'4 3.7
2015-Jan-29 22:30N 51°42' E 002°23'3 3.5
2015-Jan-29 21:33N 51°44' E 002°26'46 3.2
2015-Jan-29 07:26N 52°03' E 003°34'2 1.8
2015-Jan-29 06:20N 52°03' E 003°37'2 2.2
2015-Jan-29 05:33N 52°03' E 003°40'2 2.2
2015-Jan-29 04:33N 52°03' E 003°43'2 2.3
2015-Jan-29 03:33N 52°03' E 003°47'2 2.4
2015-Jan-29 02:34N 52°03' E 003°51'2 2.4
2015-Jan-29 01:34N 52°03' E 003°55'2 2.3
2015-Jan-29 00:33N 52°02' E 003°58'3 2.6
2015-Jan-28 23:33N 52°00' E 004°01'4 4.5
2015-Jan-28 22:33N 51°58' E 004°08'7 6.7
2015-Jan-28 21:33N 51°54' E 004°16'7 6.8
2015-Jan-28 20:33N 51°54' E 004°27'5 4.5
2015-Jan-28 19:33N 51°54' E 004°35'2 1.9
2015-Jan-28 18:27N 51°53' E 004°37'0 0.0
2015-Jan-28 17:27N 51°53' E 004°37'0 0.0
2015-Jan-28 16:30N 51°53' E 004°37'0 0.0
2015-Jan-28 15:30N 51°53' E 004°37'0 0.0
2015-Jan-28 14:30N 51°53' E 004°37'0 0.0
2015-Jan-28 13:33N 51°53' E 004°37'0 0.0
2015-Jan-28 12:33N 51°53' E 004°37'0 0.0
2015-Jan-28 11:33N 51°53' E 004°37'0 0.0
2015-Jan-28 10:33N 51°53' E 004°37'3 3.5
2015-Jan-28 09:33N 51°54' E 004°32'4 3.6
2015-Jan-28 08:33N 51°54' E 004°26'5 5.1
2015-Jan-28 07:32N 51°54' E 004°18'9 9.2
2015-Jan-28 06:33N 51°59' E 004°06'8 7.7
2015-Jan-28 05:33N 52°02' E 003°54'7 6.9
2015-Jan-28 04:33N 51°58' E 003°44'7 6.3
2015-Jan-28 03:29N 51°56' E 003°34'6 6.3
2015-Jan-28 02:32N 51°54' E 003°24'8 6.8
2015-Jan-28 01:19N 51°52' E 003°12'29 7.7
2015-Jan-27 21:31N 51°39' E 002°30'9 9.5
2015-Jan-27 20:33N 51°31' E 002°21'10 9.7
2015-Jan-27 19:33N 51°23' E 002°12'1010.3
2015-Jan-27 18:33N 51°14' E 002°03'1111.2
2015-Jan-27 17:34N 51°08' E 001°49'1211.5
2015-Jan-27 16:32N 50°59' E 001°37'  
2015-Jan-22 22:29N 39°12' W 009°50'6 6.2
2015-Jan-22 21:29N 39°06' W 009°50'5 5.8
2015-Jan-22 20:33N 39°00' W 009°50'5 5.4
2015-Jan-22 19:33N 38°55' W 009°50'6 5.3
2015-Jan-22 18:28N 38°49' W 009°50'5 5.7
2015-Jan-22 17:33N 38°44' W 009°50'6 5.8
2015-Jan-22 16:33N 38°38' W 009°49'6 6.0
2015-Jan-22 15:33N 38°32' W 009°47'6 6.0
2015-Jan-22 14:33N 38°26' W 009°45'6 5.8
2015-Jan-22 13:34N 38°21' W 009°44'6 5.5
2015-Jan-22 12:32N 38°15' W 009°42'6 5.6
2015-Jan-22 11:32N 38°10' W 009°40'5 5.4
2015-Jan-22 10:33N 38°05' W 009°39'5 5.3
2015-Jan-22 09:34N 37°60' W 009°37'5 5.3
2015-Jan-22 08:33N 37°54' W 009°36'5 5.0
2015-Jan-22 07:33N 37°49' W 009°34'5 4.9
2015-Jan-22 06:33N 37°45' W 009°33'4 4.4
2015-Jan-22 05:33N 37°40' W 009°32'5 4.5
2015-Jan-22 04:33N 37°36' W 009°30'11 4.5
2015-Jan-22 02:10N 37°26' W 009°27'  
Track history (hours):
 
Tides and Currents Weather Stations Pressure Air Temp Water Temp Dewpoint Dewpoint Depression Visibility Wind Speed Wind Dir Waves Ship Positions

Dan Fighter

Last reported at 2015-Jan-30 13:33 UTC. Time now 2015-Jan-30 21:41 UTC.
Position N 50°34' E 000°38'.

Length 64 m; draft 3.1 m.

Type: Cargo ship. MMSI: 220386978.

Date/timePositionNaut miles runAvg speedWind from/ knotsBaromVisibWave heightAir tempDewpointWater temp
2015-Jan-30 13:33N 50°34' E 000°38'8 8.0
2015-Jan-30 12:33N 50°40' E 000°47'8 7.8
2015-Jan-30 11:33N 50°44' E 000°57'14 6.9
2015-Jan-30 09:30N 50°52' E 001°15'5 5.6
2015-Jan-30 08:33N 50°56' E 001°20'5 4.6
2015-Jan-30 07:33N 50°60' E 001°25'5 4.8
2015-Jan-30 06:34N 51°03' E 001°31'6 6.4
2015-Jan-30 05:33N 51°08' E 001°38'9 8.6
2015-Jan-30 04:33N 51°14' E 001°47'9 9.1
2015-Jan-30 03:33N 51°22' E 001°55'8 7.6
2015-Jan-30 02:33N 51°28' E 002°01'6 6.0
2015-Jan-30 01:33N 51°32' E 002°08'5 5.0
2015-Jan-30 00:33N 51°36' E 002°13'4 4.3
2015-Jan-29 23:32N 51°39' E 002°18'4 3.7
2015-Jan-29 22:30N 51°42' E 002°23'3 3.5
2015-Jan-29 21:33N 51°44' E 002°26'46 3.2
2015-Jan-29 07:26N 52°03' E 003°34'2 1.8
2015-Jan-29 06:20N 52°03' E 003°37'2 2.2
2015-Jan-29 05:33N 52°03' E 003°40'2 2.2
2015-Jan-29 04:33N 52°03' E 003°43'2 2.3
2015-Jan-29 03:33N 52°03' E 003°47'2 2.4
2015-Jan-29 02:34N 52°03' E 003°51'2 2.4
2015-Jan-29 01:34N 52°03' E 003°55'2 2.3
2015-Jan-29 00:33N 52°02' E 003°58'3 2.6
2015-Jan-28 23:33N 52°00' E 004°01'4 4.5
2015-Jan-28 22:33N 51°58' E 004°08'7 6.7
2015-Jan-28 21:33N 51°54' E 004°16'7 6.8
2015-Jan-28 20:33N 51°54' E 004°27'5 4.5
2015-Jan-28 19:33N 51°54' E 004°35'2 1.9
2015-Jan-28 18:27N 51°53' E 004°37'0 0.0
2015-Jan-28 17:27N 51°53' E 004°37'0 0.0
2015-Jan-28 16:30N 51°53' E 004°37'0 0.0
2015-Jan-28 15:30N 51°53' E 004°37'0 0.0
2015-Jan-28 14:30N 51°53' E 004°37'0 0.0
2015-Jan-28 13:33N 51°53' E 004°37'0 0.0
2015-Jan-28 12:33N 51°53' E 004°37'0 0.0
2015-Jan-28 11:33N 51°53' E 004°37'0 0.0
2015-Jan-28 10:33N 51°53' E 004°37'3 3.5
2015-Jan-28 09:33N 51°54' E 004°32'4 3.6
2015-Jan-28 08:33N 51°54' E 004°26'5 5.1
2015-Jan-28 07:32N 51°54' E 004°18'9 9.2
2015-Jan-28 06:33N 51°59' E 004°06'8 7.7
2015-Jan-28 05:33N 52°02' E 003°54'7 6.9
2015-Jan-28 04:33N 51°58' E 003°44'7 6.3
2015-Jan-28 03:29N 51°56' E 003°34'6 6.3
2015-Jan-28 02:32N 51°54' E 003°24'8 6.8
2015-Jan-28 01:19N 51°52' E 003°12'29 7.7
2015-Jan-27 21:31N 51°39' E 002°30'9 9.5
2015-Jan-27 20:33N 51°31' E 002°21'10 9.7
2015-Jan-27 19:33N 51°23' E 002°12'1010.3
2015-Jan-27 18:33N 51°14' E 002°03'1111.2
2015-Jan-27 17:34N 51°08' E 001°49'1211.5
2015-Jan-27 16:32N 50°59' E 001°37'  
2015-Jan-22 22:29N 39°12' W 009°50'6 6.2
2015-Jan-22 21:29N 39°06' W 009°50'5 5.8
2015-Jan-22 20:33N 39°00' W 009°50'5 5.4
2015-Jan-22 19:33N 38°55' W 009°50'6 5.3
2015-Jan-22 18:28N 38°49' W 009°50'5 5.7
2015-Jan-22 17:33N 38°44' W 009°50'6 5.8
2015-Jan-22 16:33N 38°38' W 009°49'6 6.0
2015-Jan-22 15:33N 38°32' W 009°47'6 6.0
2015-Jan-22 14:33N 38°26' W 009°45'6 5.8
2015-Jan-22 13:34N 38°21' W 009°44'6 5.5
2015-Jan-22 12:32N 38°15' W 009°42'6 5.6
2015-Jan-22 11:32N 38°10' W 009°40'5 5.4
2015-Jan-22 10:33N 38°05' W 009°39'5 5.3
2015-Jan-22 09:34N 37°60' W 009°37'5 5.3
2015-Jan-22 08:33N 37°54' W 009°36'5 5.0
2015-Jan-22 07:33N 37°49' W 009°34'5 4.9
2015-Jan-22 06:33N 37°45' W 009°33'4 4.4
2015-Jan-22 05:33N 37°40' W 009°32'5 4.5
2015-Jan-22 04:33N 37°36' W 009°30'11 4.5
2015-Jan-22 02:10N 37°26' W 009°27'  

Dump ship's entire track history